Aeroporto :
LOGIN :

Iscrizione | Disclaimer

   EN    FR    IT 

 










Sommario :    VFR   VFR Marginale   IFR   IFR Intensivo   IFR Molto Intensivo
Visibilità : 
Base nubi : 
>= 8 km
>= 3000ft
5 / 8 km
1000 / 3000 ft
1500m / 5 km
500 / 1000 ft
800 / 1500m
200 / 500 ft
< 800m
< 200 ft
Simboli :   Temporali  Nebbia  Neve Forte  Precipitazioni Forti  Vento > 20 kt
SIGMETs :   Varie  Temporali  Ghiacco  Turbolenza  Onda orograficha  Ceneri Vulcaniche






- Altitudine del aeroporto : 247 ft
- Codice IATA : BLL


EKBI - Billund

ULTIMO METAR :
  • 211150Z AUTO 22004KT 170V270 9999 FEW017/// 16/12 Q1018

METARs OBSOLETI :
  • 211120Z AUTO 20003KT 9999 NCD 16/12 Q1018
  • 211050Z AUTO VRB03KT 9999 FEW011/// 14/11 Q1018
  • 211020Z AUTO 17004KT 130V220 9999 FEW008/// 13/11 Q1018
  • 210950Z AUTO 21003KT 9999 BKN006/// 13/12 Q1019
  • 210920Z AUTO 19004KT 150V240 9999 OVC004/// 11/11 Q1019

TAF TAF EKBI
Valido dal 21 a 12 ore il 22 a 12 ore UTC


211106Z 2112/2212 VRB02KT 9999 FEW012
TEMPO 2112/2119 BKN012
TEMPO 2119/2122 3000 BR BKN012
BECMG 2122/2124 0100 FG VV001
TEMPO 2200/2207 0500 FG VV003
BECMG 2207/2209 9999 NSW SCT003
TEMPO 2209/2211 3000 BR BKN003



MetMap, La meteo Aeronautica in un colpo d'occhio ! - Copyright ORBIFLY Dicembre 2007 - Disclaimer

ORBIFLY MET'MAP TEAM :

Programmazione e sviluppo : Alexandra Zaïnal
Concezione : Baudouin d'Aumeries
Aiuto per la programmazione : Marc-Olivier Méhu
Supporto tecnico e logistico : Manuel Goepfert
Aiuto per la traduzione : Arnaldo La Scala

Contatto : metmap@orbifly.com




FONTI E CREDITI :

   NOAA